Time;durP1;ratioP1;P1;durP2;ratioP2;P2;SDS_P1;SDS_P2;PMS_P1;PMS_P2;Temp;Humidity;BMP_temperature;BMP_pressure;BME280_temperature;BME280_humidity;BME280_pressure;Samples;Min_cycle;Max_cycle;Signal;HPM_P1;HPM_P2
2022/02/04 00:07:36;;;;;;;9.47;7.20;;;;;;;5.20;100.00;100153.97;5051955;28;20305;-73
2022/02/04 00:21:23;;;;;;;2.03;1.93;;;;;;;5.17;100.00;100153.72;5048957;28;20174;-72
2022/02/04 00:23:50;;;;;;;2.27;2.07;;;;;;;5.14;100.00;100157.00;5050800;28;20743;-72
2022/02/04 00:26:23;;;;;;;2.50;2.30;;;;;;;5.14;100.00;100154.31;5051170;28;20376;-72
2022/02/04 00:29:06;;;;;;;3.53;3.27;;;;;;;5.13;100.00;100148.06;5051358;28;20195;-73
2022/02/04 00:31:37;;;;;;;9.27;7.07;;;;;;;5.13;100.00;100147.28;5050058;28;20248;-72
2022/02/04 00:34:09;;;;;;;5.47;5.07;;;;;;;5.14;100.00;100140.75;5051579;28;20152;-72
2022/02/04 00:39:11;;;;;;;4.17;3.77;;;;;;;5.17;100.00;100137.47;5051039;28;20648;-72
2022/02/04 00:41:39;;;;;;;5.63;4.53;;;;;;;5.18;100.00;100153.44;5050846;28;20569;-72
2022/02/04 00:44:06;;;;;;;9.40;5.67;;;;;;;5.18;100.00;100144.50;5050901;28;20236;-72
2022/02/04 00:49:12;;;;;;;6.37;5.67;;;;;;;5.22;100.00;100151.81;5050947;28;20773;-73
2022/02/04 00:51:50;;;;;;;2.27;2.17;;;;;;;5.22;100.00;100157.22;5050838;28;20673;-73
2022/02/04 00:54:26;;;;;;;7.63;6.90;;;;;;;5.24;100.00;100156.94;5050851;28;20159;-72
2022/02/04 01:26:43;;;;;;;4.43;4.00;;;;;;;5.31;100.00;100160.94;5049863;28;20257;-72
2022/02/04 01:29:10;;;;;;;7.97;6.37;;;;;;;5.33;100.00;100157.94;5049847;28;20216;-72
2022/02/04 01:31:35;;;;;;;3.83;3.53;;;;;;;5.34;100.00;100160.34;5049927;28;20178;-72
2022/02/04 01:34:01;;;;;;;7.83;7.20;;;;;;;5.33;100.00;100169.56;5049379;28;20176;-72
2022/02/04 01:36:26;;;;;;;6.03;5.43;;;;;;;5.35;100.00;100169.28;5049737;28;20183;-73
2022/02/04 01:38:51;;;;;;;7.33;5.93;;;;;;;5.35;100.00;100167.41;5049906;28;20779;-72
2022/02/04 01:41:17;;;;;;;4.83;4.43;;;;;;;5.35;100.00;100167.41;5049805;28;20199;-72
2022/02/04 01:43:43;;;;;;;6.37;5.87;;;;;;;5.36;100.00;100168.22;5050008;28;20192;-73
2022/02/04 01:46:12;;;;;;;8.03;5.77;;;;;;;5.38;100.00;100163.31;5049632;28;20631;-72
2022/02/04 01:48:39;;;;;;;7.80;7.00;;;;;;;5.38;100.00;100160.63;5049944;28;20215;-72
2022/02/04 01:51:06;;;;;;;5.20;4.53;;;;;;;5.36;100.00;100165.50;5049542;28;20179;-72
2022/02/04 01:53:33;;;;;;;5.30;4.77;;;;;;;5.36;100.00;100157.38;5049663;28;20179;-72
2022/02/04 01:56:03;;;;;;;3.83;3.53;;;;;;;5.37;100.00;100151.69;5049206;28;20577;-72
2022/02/04 01:58:29;;;;;;;8.80;6.30;;;;;;;5.39;100.00;100156.81;5049794;28;20202;-72
2022/02/04 02:00:54;;;;;;;7.83;4.33;;;;;;;5.36;100.00;100158.19;5049608;28;20279;-72
2022/02/04 02:03:20;;;;;;;6.40;5.80;;;;;;;5.36;100.00;99937.97;5049411;28;20682;-72
2022/02/04 02:05:47;;;;;;;7.10;6.00;;;;;;;5.36;100.00;99984.03;5049415;28;20190;-72
2022/02/04 02:08:15;;;;;;;13.07;11.07;;;;;;;5.36;100.00;100065.28;5049711;28;20643;-72
2022/02/04 02:10:42;;;;;;;8.93;7.70;;;;;;;5.36;100.00;100095.91;5050998;28;20272;-72
2022/02/04 02:43:38;;;;;;;5.67;5.13;;;;;;;5.36;100.00;100128.41;5052792;28;20202;-72
2022/02/04 02:50:58;;;;;;;2.90;2.70;;;;;;;5.39;100.00;100124.31;5052694;28;20218;-72
2022/02/04 02:58:49;;;;;;;12.77;9.50;;;;;;;5.38;100.00;100125.41;5052636;28;20634;-72
2022/02/04 03:01:14;;;;;;;6.80;4.10;;;;;;;5.38;100.00;100125.41;5052740;28;20568;-72
2022/02/04 03:03:39;;;;;;;3.63;3.33;;;;;;;5.37;100.00;100127.31;5054942;28;20178;-72
2022/02/04 03:06:06;;;;;;;3.47;2.83;;;;;;;5.40;100.00;100125.13;5072049;28;20185;-73
2022/02/04 03:08:31;;;;;;;7.87;6.97;;;;;;;5.38;100.00;100123.50;5072563;28;20274;-72
2022/02/04 03:10:57;;;;;;;19.00;9.87;;;;;;;5.37;100.00;100121.88;5072816;28;20261;-72
2022/02/04 03:13:25;;;;;;;6.57;6.00;;;;;;;5.34;100.00;100117.00;5072755;28;20167;-72
2022/02/04 03:15:58;;;;;;;15.70;8.57;;;;;;;5.31;100.00;100112.16;5072479;28;20749;-72
2022/02/04 03:18:26;;;;;;;4.17;3.53;;;;;;;5.30;100.00;100113.28;5072666;28;20209;-72
2022/02/04 03:20:55;;;;;;;14.00;8.47;;;;;;;5.28;100.00;100112.75;5072534;28;20171;-73
2022/02/04 03:23:22;;;;;;;5.73;5.20;;;;;;;5.26;100.00;100104.09;5071556;28;20169;-72
2022/02/04 03:25:52;;;;;;;14.07;10.10;;;;;;;5.27;100.00;100104.91;5072179;28;20701;-72
2022/02/04 03:28:24;;;;;;;10.90;7.63;;;;;;;5.27;100.00;100096.78;5072537;28;20542;-73
2022/02/04 03:30:52;;;;;;;6.20;5.70;;;;;;;5.25;100.00;100088.94;5072223;28;20174;-74
2022/02/04 03:33:20;;;;;;;7.03;6.33;;;;;;;5.25;100.00;100091.66;5072336;28;20680;-72
2022/02/04 03:35:46;;;;;;;11.80;9.23;;;;;;;5.26;100.00;100101.41;5072056;28;20281;-73
2022/02/04 03:38:11;;;;;;;7.30;6.27;;;;;;;5.26;100.00;100098.69;5071968;28;20265;-72
2022/02/04 03:40:36;;;;;;;14.80;11.77;;;;;;;5.27;100.00;100097.59;5071597;28;20209;-72
2022/02/04 03:43:02;;;;;;;16.93;12.00;;;;;;;5.29;100.00;100094.59;5071549;28;20623;-72
2022/02/04 03:45:27;;;;;;;19.50;12.57;;;;;;;5.29;100.00;100086.47;5071203;28;20656;-72
2022/02/04 03:47:52;;;;;;;17.43;11.87;;;;;;;5.31;100.00;100090.50;5071350;28;20186;-73
2022/02/04 03:50:18;;;;;;;11.63;8.50;;;;;;;5.34;100.00;100105.38;5071231;28;20202;-72
2022/02/04 03:52:44;;;;;;;4.73;3.83;;;;;;;5.36;100.00;100089.66;5071081;28;20175;-72
2022/02/04 03:55:11;;;;;;;10.53;7.13;;;;;;;5.36;100.00;100092.38;5071030;28;20239;-72
2022/02/04 03:57:36;;;;;;;7.70;6.50;;;;;;;5.37;100.00;100083.16;5071156;28;20174;-72
2022/02/04 04:00:04;;;;;;;11.07;8.60;;;;;;;5.40;100.00;100081.78;5071012;28;20163;-72
2022/02/04 04:02:29;;;;;;;9.73;7.63;;;;;;;5.42;100.00;100085.00;5070939;28;20541;-72
2022/02/04 04:04:55;;;;;;;12.70;5.23;;;;;;;5.45;100.00;100090.66;5070987;28;20186;-73
2022/02/04 04:07:20;;;;;;;18.30;10.93;;;;;;;5.46;100.00;100091.47;5071049;28;20174;-72
2022/02/04 04:09:52;;;;;;;9.53;8.53;;;;;;;5.48;100.00;100086.56;5070945;28;20726;-72
2022/02/04 04:12:18;;;;;;;9.67;8.67;;;;;;;5.50;100.00;100100.66;5071016;28;20171;-72
2022/02/04 04:14:46;;;;;;;13.13;10.47;;;;;;;5.50;100.00;100081.69;5070740;28;20170;-72
2022/02/04 04:17:11;;;;;;;2.33;1.57;;;;;;;5.54;100.00;100085.44;5070877;28;20162;-72
2022/02/04 04:19:37;;;;;;;3.23;2.83;;;;;;;5.58;100.00;100081.84;5071142;28;20174;-72
2022/02/04 04:22:02;;;;;;;13.80;8.73;;;;;;;5.60;100.00;100097.81;5071184;28;20221;-72
2022/02/04 04:24:28;;;;;;;15.20;8.90;;;;;;;5.56;100.00;100084.03;5070271;28;20218;-72
2022/02/04 04:26:53;;;;;;;2.83;2.63;;;;;;;5.59;100.00;100090.78;5070494;28;20166;-72
2022/02/04 04:29:18;;;;;;;14.63;9.53;;;;;;;5.62;100.00;100085.59;5070152;28;20199;-72
2022/02/04 04:31:43;;;;;;;13.60;9.93;;;;;;;5.62;100.00;100087.50;5070679;28;20213;-72
2022/02/04 04:34:09;;;;;;;8.27;7.43;;;;;;;5.65;100.00;100081.53;5070517;28;20171;-72
2022/02/04 04:36:35;;;;;;;7.87;6.33;;;;;;;5.66;100.00;100083.13;5070357;28;20558;-72
2022/02/04 05:30:09;;;;;;;1.70;1.60;;;;;;;5.91;100.00;100038.66;5070095;28;20206;-72
2022/02/04 05:32:34;;;;;;;10.60;6.00;;;;;;;5.91;100.00;100044.91;5070125;28;20175;-72
2022/02/04 05:35:00;;;;;;;7.27;6.53;;;;;;;5.93;100.00;100036.47;5069694;28;20186;-72
2022/02/04 05:37:26;;;;;;;6.67;5.80;;;;;;;5.91;100.00;100031.34;5069913;28;20170;-72
2022/02/04 05:40:01;;;;;;;8.27;6.30;;;;;;;5.89;100.00;100030.00;5069890;28;20174;-72
2022/02/04 05:42:31;;;;;;;4.40;4.00;;;;;;;5.92;100.00;100026.72;5070041;28;20170;-73
2022/02/04 05:45:04;;;;;;;6.73;4.80;;;;;;;5.91;100.00;100022.41;5068654;28;20583;-72
2022/02/04 05:47:31;;;;;;;5.47;4.33;;;;;;;5.92;100.00;100019.41;5073922;28;20170;-72
2022/02/04 05:52:30;;;;;;;1.50;1.40;;;;;;;5.95;100.00;100024.25;5073446;28;20209;-72
2022/02/04 05:55:16;;;;;;;4.97;2.23;;;;;;;5.96;100.00;100030.50;5073772;28;20257;-72
2022/02/04 05:57:57;;;;;;;2.77;2.60;;;;;;;5.99;100.00;100018.25;5074141;28;20178;-72
2022/02/04 06:03:23;;;;;;;0.63;0.63;;;;;;;5.99;99.86;100012.84;5073664;28;20261;-72
2022/02/04 06:24:03;;;;;;;6.20;5.17;;;;;;;6.02;100.00;100012.25;5073556;28;20185;-72
2022/02/04 06:26:30;;;;;;;3.57;2.93;;;;;;;6.02;100.00;100004.09;5072603;28;20190;-72
2022/02/04 06:28:56;;;;;;;5.60;5.03;;;;;;;6.01;100.00;100010.63;5073020;28;20202;-72
2022/02/04 06:31:22;;;;;;;3.10;2.77;;;;;;;5.95;100.00;100001.78;5073353;28;20178;-72
2022/02/04 06:33:47;;;;;;;6.73;5.60;;;;;;;5.96;100.00;100004.19;5072916;28;20580;-72
2022/02/04 06:36:13;;;;;;;3.90;3.60;;;;;;;5.95;100.00;99999.88;5072724;28;20177;-72
2022/02/04 06:38:38;;;;;;;4.37;3.83;;;;;;;5.92;100.00;99995.00;5072949;28;20178;-72
2022/02/04 06:41:04;;;;;;;4.83;3.13;;;;;;;5.92;100.00;99997.72;5071467;28;20235;-72
2022/02/04 06:43:30;;;;;;;4.50;4.10;;;;;;;5.91;100.00;99998.00;5072816;28;20652;-73
2022/02/04 06:45:55;;;;;;;2.93;2.63;;;;;;;5.92;100.00;99999.63;5072525;28;20585;-72
2022/02/04 06:48:21;;;;;;;3.30;3.00;;;;;;;5.89;100.00;100003.69;5072786;28;20179;-72
2022/02/04 06:50:46;;;;;;;3.87;3.47;;;;;;;5.90;100.00;100012.66;5072516;28;20214;-72
2022/02/04 06:53:11;;;;;;;3.20;2.90;;;;;;;5.90;100.00;100008.03;5072575;28;20185;-72
2022/02/04 06:55:37;;;;;;;2.37;1.93;;;;;;;5.91;100.00;100012.38;5072643;28;20236;-72
2022/02/04 06:58:02;;;;;;;2.63;2.43;;;;;;;5.92;100.00;100011.28;5072659;28;20261;-72
2022/02/04 07:00:29;;;;;;;4.60;4.20;;;;;;;5.93;100.00;100007.47;5072519;28;20178;-72
2022/02/04 07:02:55;;;;;;;1.07;1.00;;;;;;;5.95;100.00;100012.63;5072452;28;20174;-73
2022/02/04 07:05:22;;;;;;;3.67;3.37;;;;;;;5.93;100.00;100014.78;5072005;28;20174;-72
2022/02/04 07:08:12;;;;;;;6.13;4.67;;;;;;;5.89;100.00;100019.97;5069760;28;20186;-74
2022/02/04 07:13:18;;;;;;;3.20;2.03;;;;;;;5.82;100.00;100014.09;5072696;28;20175;-72
2022/02/04 07:15:57;;;;;;;3.50;2.27;;;;;;;5.77;100.00;100016.03;5072385;28;20210;-72
2022/02/04 07:21:07;;;;;;;4.27;3.60;;;;;;;5.66;100.00;99999.13;5072550;28;20296;-72
2022/02/04 07:23:35;;;;;;;1.33;1.27;;;;;;;5.64;100.00;100002.13;5072486;28;20261;-72
2022/02/04 07:26:01;;;;;;;0.70;0.70;;;;;;;5.66;100.00;100004.53;5072313;28;20189;-74
2022/02/04 07:28:26;;;;;;;4.20;3.80;;;;;;;5.66;100.00;100008.06;5052536;28;20179;-72
2022/02/04 07:30:53;;;;;;;5.50;4.80;;;;;;;5.67;100.00;100008.88;5052283;28;20207;-72
2022/02/04 07:33:21;;;;;;;0.43;0.40;;;;;;;5.70;100.00;100002.06;5052327;28;20174;-72
2022/02/04 07:41:24;;;;;;;3.67;3.33;;;;;;;5.75;100.00;100005.50;5060866;28;20191;-72
2022/02/04 07:43:50;;;;;;;4.77;4.03;;;;;;;5.74;100.00;99995.75;5052075;28;20203;-72
2022/02/04 07:46:18;;;;;;;3.80;3.40;;;;;;;5.75;100.00;100008.22;5051941;28;20184;-72
2022/02/04 07:48:43;;;;;;;1.30;1.20;;;;;;;5.78;100.00;100015.75;5052060;28;20179;-72
2022/02/04 07:51:08;;;;;;;5.53;5.03;;;;;;;5.81;100.00;100009.78;5057090;28;20193;-72
2022/02/04 07:53:35;;;;;;;4.07;3.37;;;;;;;5.81;100.00;100001.66;5071824;28;20593;-72
2022/02/04 07:56:02;;;;;;;4.30;3.43;;;;;;;5.81;100.00;100009.78;5071576;28;20174;-72
2022/02/04 07:58:27;;;;;;;4.20;3.77;;;;;;;5.84;100.00;100001.06;5071735;28;20511;-72
2022/02/04 08:00:53;;;;;;;6.20;5.60;;;;;;;5.83;100.00;100006.78;5071695;28;20185;-72
2022/02/04 08:06:22;;;;;;;1.23;1.20;;;;;;;5.89;100.00;99978.50;5048705;28;20179;-72
2022/02/04 08:09:05;;;;;;;1.87;1.67;;;;;;;5.92;100.00;100002.31;5065408;28;20201;-72
2022/02/04 08:25:05;;;;;;;3.40;3.10;;;;;;;6.00;100.00;99988.13;5069411;28;20193;-71
2022/02/04 08:33:06;;;;;;;4.23;3.23;;;;;;;6.02;100.00;99980.50;5071450;28;20181;-72
2022/02/04 08:54:31;;;;;;;3.30;1.70;;;;;;;6.15;100.00;99978.97;5071169;28;20245;-72
2022/02/04 08:59:32;;;;;;;1.20;0.90;;;;;;;6.20;100.00;99989.75;5070798;28;20163;-73
2022/02/04 09:02:32;;;;;;;4.07;3.70;;;;;;;6.23;100.00;99984.56;5066021;28;20191;-72
2022/02/04 09:04:47;;;;;;;3.13;2.83;;;;;;;6.24;100.00;99988.06;5050342;28;20267;-72
2022/02/04 09:07:15;;;;;;;3.83;3.47;;;;;;;6.29;100.00;99985.28;5049513;28;20214;-72
2022/02/04 09:09:58;;;;;;;1.40;1.23;;;;;;;6.30;100.00;99977.94;5050642;28;20195;-72
2022/02/04 09:20:32;;;;;;;3.07;2.33;;;;;;;6.37;100.00;99962.13;5071794;28;20269;-73
2022/02/04 09:22:58;;;;;;;3.47;3.27;;;;;;;6.38;100.00;99961.00;5074993;28;20163;-74
2022/02/04 09:25:25;;;;;;;0.73;0.73;;;;;;;6.36;100.00;99955.84;5073211;28;20250;-74
2022/02/04 09:27:51;;;;;;;2.30;1.73;;;;;;;6.34;100.00;99952.63;5074810;28;20178;-71
2022/02/04 09:30:18;;;;;;;2.20;1.83;;;;;;;6.36;100.00;99949.63;5074466;28;20750;-71
2022/02/04 09:32:43;;;;;;;0.77;0.77;;;;;;;6.36;100.00;99955.06;5074336;28;20249;-71
2022/02/04 09:35:12;;;;;;;0.87;0.80;;;;;;;6.33;100.00;99937.47;5074350;28;20182;-71
2022/02/04 09:37:38;;;;;;;0.57;0.57;;;;;;;6.35;100.00;99932.53;5074409;28;20183;-71
2022/02/04 09:40:06;;;;;;;2.97;2.40;;;;;;;6.36;100.00;99934.16;5074427;28;20174;-72
2022/02/04 09:42:31;;;;;;;1.10;1.00;;;;;;;6.41;100.00;99933.28;5074421;28;20178;-71
2022/02/04 09:44:56;;;;;;;2.93;2.57;;;;;;;6.43;100.00;99942.72;5074178;28;20649;-72
2022/02/04 09:47:25;;;;;;;1.13;1.03;;;;;;;6.41;100.00;99930.56;5074670;28;20181;-75
2022/02/04 09:49:57;;;;;;;1.20;1.10;;;;;;;6.43;100.00;99937.31;5074141;28;20199;-71
2022/02/04 10:09:01;;;;;;;0.70;0.70;;;;;;;6.72;99.28;99917.28;5073714;28;20178;-71
2022/02/04 10:17:12;;;;;;;0.83;0.70;;;;;;;6.89;97.38;99906.66;5053565;28;20232;-71
2022/02/04 10:22:05;;;;;;;3.60;2.73;;;;;;;7.00;96.88;99913.50;5053567;28;20217;-71
2022/02/04 10:24:33;;;;;;;2.03;1.83;;;;;;;7.02;95.81;99916.72;5053027;28;20639;-71
2022/02/04 10:27:09;;;;;;;2.63;2.27;;;;;;;7.10;95.93;99915.22;5053121;28;20631;-72
2022/02/04 10:29:35;;;;;;;1.33;1.23;;;;;;;7.10;95.69;99915.22;5052232;28;20728;-71
2022/02/04 10:32:00;;;;;;;2.17;2.07;;;;;;;7.10;94.75;99923.38;5052525;28;20171;-72
2022/02/04 10:34:28;;;;;;;2.90;2.63;;;;;;;7.15;95.08;99910.50;5053016;28;20175;-72
2022/02/04 10:37:01;;;;;;;2.20;1.93;;;;;;;7.18;95.25;99911.81;5051762;28;20195;-71
2022/02/04 10:50:42;;;;;;;1.73;1.63;;;;;;;7.08;93.44;99873.97;5052718;28;20568;-72
2022/02/04 10:59:07;;;;;;;2.07;1.23;;;;;;;7.15;93.68;99853.44;5052599;28;20229;-71
2022/02/04 11:04:32;;;;;;;0.30;0.30;;;;;;;7.17;92.92;99847.72;5053908;28;20282;-72
2022/02/04 11:33:51;;;;;;;1.57;1.03;;;;;;;7.43;90.90;99774.59;5052354;28;20186;-71
2022/02/04 11:36:40;;;;;;;2.40;2.20;;;;;;;7.49;90.44;99786.16;5051703;28;20194;-71
2022/02/04 11:52:03;;;;;;;1.63;0.97;;;;;;;7.68;90.33;99737.88;5067969;28;20186;-71
2022/02/04 11:54:31;;;;;;;1.27;1.17;;;;;;;7.62;91.19;99741.81;5068982;28;20178;-71
2022/02/04 11:56:56;;;;;;;1.70;1.60;;;;;;;7.63;92.55;99744.22;5070045;28;20174;-71
2022/02/04 11:59:43;;;;;;;1.67;1.20;;;;;;;7.72;91.81;99736.94;5065338;28;20185;-72
2022/02/04 12:02:26;;;;;;;0.13;0.13;;;;;;;7.71;92.18;99721.75;5070638;28;20182;-71
2022/02/04 12:05:22;;;;;;;1.20;0.87;;;;;;;7.69;93.91;99721.25;5064513;28;20681;-71
2022/02/04 12:07:47;;;;;;;0.80;0.80;;;;;;;7.62;93.08;99718.16;5071502;28;20174;-71
2022/02/04 12:10:12;;;;;;;0.10;0.10;;;;;;;7.57;93.04;99721.00;5071400;28;20218;-71
2022/02/04 12:12:53;;;;;;;0.70;0.67;;;;;;;7.49;94.33;99697.28;5071276;28;20206;-71
2022/02/04 12:15:41;;;;;;;0.50;0.50;;;;;;;7.55;95.67;99704.19;5071240;28;20637;-71
2022/02/04 12:18:12;;;;;;;3.43;1.13;;;;;;;7.51;96.60;99686.88;5064165;28;20200;-71
2022/02/04 12:20:47;;;;;;;0.50;0.50;;;;;;;7.51;97.06;99676.00;5071192;28;20175;-71
2022/02/04 12:23:27;;;;;;;2.17;2.07;;;;;;;7.52;97.08;99677.63;5071280;28;20188;-72
2022/02/04 12:25:54;;;;;;;1.00;0.90;;;;;;;7.50;96.92;99679.03;5071009;28;20205;-71
2022/02/04 12:28:37;;;;;;;1.20;1.10;;;;;;;7.53;97.95;99676.53;5069617;28;20186;-72
2022/02/04 12:31:14;;;;;;;0.60;0.60;;;;;;;7.62;96.75;99687.44;5070651;28;20221;-72
2022/02/04 12:33:43;;;;;;;1.27;1.17;;;;;;;7.60;95.29;99676.88;5069774;28;20222;-72
2022/02/04 12:36:32;;;;;;;0.73;0.73;;;;;;;7.73;94.98;99662.41;5070496;28;20171;-71
2022/02/04 12:39:03;;;;;;;0.73;0.70;;;;;;;7.88;92.90;99665.84;5069115;28;20167;-72
2022/02/04 12:41:32;;;;;;;1.10;1.00;;;;;;;8.06;92.98;99637.59;5070693;28;20204;-72
2022/02/04 12:44:01;;;;;;;0.60;0.60;;;;;;;8.27;91.51;99644.09;5070759;28;20182;-72
2022/02/04 12:46:28;;;;;;;0.67;0.67;;;;;;;8.25;89.79;99638.16;5070463;28;20341;-72
2022/02/04 12:49:00;;;;;;;0.30;0.30;;;;;;;8.43;88.19;99627.34;5070281;28;20198;-71
2022/02/04 12:51:32;;;;;;;0.60;0.60;;;;;;;8.46;88.01;99640.31;5068925;28;20562;-72
2022/02/04 12:53:58;;;;;;;0.60;0.60;;;;;;;8.53;87.40;99613.41;5070121;28;20174;-72
2022/02/04 12:56:36;;;;;;;0.87;0.80;;;;;;;8.43;86.44;99611.81;5070306;28;20185;-72
2022/02/04 13:07:46;;;;;;;0.70;0.40;;;;;;;8.18;86.81;99599.72;5069269;28;20224;-72
2022/02/04 13:10:19;;;;;;;0.70;0.47;;;;;;;8.07;87.11;99598.41;5070754;28;20240;-71
2022/02/04 13:12:52;;;;;;;0.40;0.40;;;;;;;8.06;87.98;99588.63;5070907;28;20626;-71
2022/02/04 13:15:18;;;;;;;0.07;0.07;;;;;;;7.99;87.71;99593.75;5070710;28;20177;-72
2022/02/04 13:17:44;;;;;;;0.30;0.30;;;;;;;7.96;88.76;99599.81;5070746;28;20643;-72
2022/02/04 13:20:11;;;;;;;0.20;0.20;;;;;;;7.86;88.89;99581.88;5070796;28;20177;-71
2022/02/04 13:22:38;;;;;;;0.17;0.00;;;;;;;7.89;89.62;99591.31;5070732;28;20613;-72
2022/02/04 13:25:14;;;;;;;0.63;0.47;;;;;;;7.83;90.17;99589.84;5070234;28;20630;-72
2022/02/04 13:28:18;;;;;;;0.50;0.43;;;;;;;7.84;91.47;99594.19;5069586;28;20197;-72
2022/02/04 13:31:00;;;;;;;0.00;0.00;;;;;;;7.79;90.99;99583.41;5070112;28;20305;-71
2022/02/04 13:33:27;;;;;;;0.30;0.30;;;;;;;7.76;91.06;99576.69;5070626;28;20167;-71
2022/02/04 13:35:58;;;;;;;0.20;0.20;;;;;;;7.73;91.96;99567.25;5069803;28;20174;-72
2022/02/04 13:38:33;;;;;;;0.10;0.10;;;;;;;7.72;92.12;99564.84;5069987;28;20582;-71
2022/02/04 13:43:51;;;;;;;0.03;0.03;;;;;;;7.61;92.31;99558.88;5070263;28;20158;-71
2022/02/04 13:46:35;;;;;;;0.30;0.30;;;;;;;7.61;92.87;99556.16;5069768;28;20722;-72
2022/02/04 13:51:52;;;;;;;0.20;0.20;;;;;;;7.65;92.51;99553.63;5069793;28;20167;-72
2022/02/04 13:57:09;;;;;;;0.10;0.10;;;;;;;7.58;91.81;99548.63;5069954;28;20171;-72
2022/02/04 13:59:42;;;;;;;0.23;0.23;;;;;;;7.58;92.56;99537.78;5070300;28;20561;-72
2022/02/04 14:02:19;;;;;;;0.30;0.30;;;;;;;7.63;91.49;99545.78;5069400;28;20163;-72
2022/02/04 14:04:59;;;;;;;0.00;0.00;;;;;;;7.68;90.99;99540.22;5069582;28;20170;-72
2022/02/04 14:07:42;;;;;;;0.17;0.17;;;;;;;7.71;90.36;99531.44;5072207;28;20574;-72
2022/02/04 14:10:25;;;;;;;0.10;0.10;;;;;;;7.78;90.39;99522.00;5073205;28;20560;-72
2022/02/04 14:13:17;;;;;;;0.53;0.17;;;;;;;7.78;89.38;99535.59;5072433;28;20555;-72
2022/02/04 14:15:49;;;;;;;0.00;0.00;;;;;;;7.79;88.64;99515.44;5065553;28;20222;-72
2022/02/04 14:18:15;;;;;;;0.10;0.10;;;;;;;7.83;88.67;99524.59;5073695;28;20630;-72
2022/02/04 14:20:42;;;;;;;0.20;0.20;;;;;;;7.84;89.05;99520.75;5071933;28;20170;-71
2022/02/04 14:23:09;;;;;;;0.07;0.07;;;;;;;7.85;87.88;99514.19;5073240;28;20703;-72
2022/02/04 14:28:40;;;;;;;0.00;0.00;;;;;;;7.81;87.08;99510.50;5073350;28;20178;-72
2022/02/04 14:31:15;;;;;;;0.10;0.10;;;;;;;7.76;87.69;99506.00;5073112;28;20539;-72
2022/02/04 15:01:02;;;;;;;0.10;0.10;;;;;;;7.38;92.92;99462.25;5072789;28;20566;-72
2022/02/04 15:03:33;;;;;;;0.27;0.10;;;;;;;7.33;93.31;99448.78;5073248;28;20179;-72
2022/02/04 15:08:37;;;;;;;0.20;0.20;;;;;;;7.20;93.90;99450.50;5072783;28;20253;-72
2022/02/04 15:11:11;;;;;;;0.30;0.30;;;;;;;7.15;93.49;99456.06;5072810;28;20198;-71
2022/02/04 15:13:37;;;;;;;0.33;0.33;;;;;;;7.13;93.44;99439.28;5072505;28;20182;-72
2022/02/04 15:16:06;;;;;;;0.30;0.30;;;;;;;7.10;93.54;99446.16;5072275;28;20170;-72
2022/02/04 15:18:32;;;;;;;0.27;0.27;;;;;;;7.11;93.18;99434.16;5070900;28;20692;-74
2022/02/04 15:21:00;;;;;;;0.20;0.13;;;;;;;7.09;92.99;99439.13;5071022;28;20182;-71
2022/02/04 15:23:26;;;;;;;0.27;0.27;;;;;;;7.15;90.73;99437.84;5072086;28;20172;-74
2022/02/04 15:25:54;;;;;;;0.23;0.20;;;;;;;7.15;90.81;99443.28;5071723;28;20236;-71
2022/02/04 15:30:55;;;;;;;0.20;0.20;;;;;;;7.02;93.12;99418.94;5071907;28;20678;-71
2022/02/04 15:33:21;;;;;;;0.00;0.00;;;;;;;6.97;93.98;99443.53;5072472;28;20197;-71
2022/02/04 15:35:46;;;;;;;0.20;0.20;;;;;;;6.97;93.51;99435.38;5071679;28;20196;-71
2022/02/04 15:38:12;;;;;;;0.20;0.20;;;;;;;6.96;94.38;99434.59;5071810;28;20215;-71
2022/02/04 15:40:42;;;;;;;0.30;0.23;;;;;;;6.90;93.90;99416.81;5072000;28;20174;-73
2022/02/04 15:43:07;;;;;;;0.50;0.40;;;;;;;6.74;94.74;99421.03;5071824;28;20749;-71
2022/02/04 15:58:53;;;;;;;0.10;0.10;;;;;;;6.28;100.00;99361.72;5071525;28;20170;-71
2022/02/04 16:01:27;;;;;;;0.10;0.10;;;;;;;6.31;100.00;99377.34;5071360;28;20553;-70
2022/02/04 16:06:25;;;;;;;0.10;0.10;;;;;;;6.36;100.00;99356.31;5070862;28;20193;-71
2022/02/04 16:08:53;;;;;;;0.60;0.40;;;;;;;6.39;100.00;99346.78;5071123;28;20166;-71
2022/02/04 16:11:32;;;;;;;0.30;0.30;;;;;;;6.51;98.83;99336.16;5070999;28;20634;-70
2022/02/04 16:14:12;;;;;;;0.20;0.20;;;;;;;6.57;97.31;99334.91;5069949;28;20214;-71
2022/02/04 16:16:42;;;;;;;1.73;0.30;;;;;;;6.54;97.09;99417.75;5070930;28;20265;-71
2022/02/04 16:19:26;;;;;;;0.10;0.10;;;;;;;6.57;96.30;99324.06;5070996;28;20618;-71
2022/02/04 16:24:47;;;;;;;1.03;0.57;;;;;;;6.74;93.37;99328.75;5071087;28;20174;-71
2022/02/04 16:29:56;;;;;;;0.00;0.00;;;;;;;6.80;91.80;99312.03;5070730;28;20206;-71
2022/02/04 16:32:21;;;;;;;0.37;0.37;;;;;;;6.82;91.07;99300.84;5070135;28;20187;-71
2022/02/04 16:34:53;;;;;;;0.10;0.10;;;;;;;6.92;89.35;99300.53;5070468;28;20174;-71
2022/02/04 16:37:29;;;;;;;0.17;0.10;;;;;;;6.94;88.43;99283.94;5070749;28;20170;-71
2022/02/04 16:39:59;;;;;;;0.07;0.07;;;;;;;6.98;88.09;99293.88;5070577;28;20634;-71
2022/02/04 16:42:27;;;;;;;2.93;1.03;;;;;;;7.00;87.30;99293.53;5070692;28;20185;-71
2022/02/04 16:44:52;;;;;;;0.53;0.40;;;;;;;6.99;87.13;99281.09;5070168;28;20209;-71
2022/02/04 16:47:18;;;;;;;0.20;0.20;;;;;;;6.99;87.08;99260.16;5070622;28;20212;-71
2022/02/04 16:49:43;;;;;;;3.30;0.43;;;;;;;7.03;86.69;99273.91;5069188;28;20283;-71
2022/02/04 16:52:09;;;;;;;0.43;0.40;;;;;;;7.05;85.79;99285.25;5070354;28;20175;-71
2022/02/04 16:54:35;;;;;;;0.10;0.00;;;;;;;7.03;86.61;99282.84;5070353;28;20170;-71
2022/02/04 16:57:02;;;;;;;0.00;0.00;;;;;;;7.03;86.48;99280.13;5070154;28;20257;-73
2022/02/04 16:59:28;;;;;;;0.20;0.20;;;;;;;7.00;86.60;99274.53;5068943;28;20626;-73
2022/02/04 17:01:54;;;;;;;0.27;0.20;;;;;;;7.00;86.75;99278.06;5070474;28;20402;-73
2022/02/04 17:04:20;;;;;;;2.63;0.40;;;;;;;7.02;86.87;99253.28;5069655;28;20177;-73
2022/02/04 17:06:53;;;;;;;0.20;0.20;;;;;;;7.00;87.27;99267.19;5069893;28;20181;-73
2022/02/04 17:11:46;;;;;;;0.10;0.10;;;;;;;6.91;88.82;99258.22;5070213;28;20261;-73
2022/02/04 17:14:14;;;;;;;0.20;0.20;;;;;;;6.86;89.28;99252.94;5070114;28;20261;-73
2022/02/04 17:16:42;;;;;;;0.00;0.00;;;;;;;6.82;89.11;99252.78;5069942;28;20186;-72
2022/02/04 17:19:19;;;;;;;0.50;0.50;;;;;;;6.82;89.16;99249.28;5070166;28;20178;-73
2022/02/04 17:21:45;;;;;;;1.07;1.07;;;;;;;6.83;89.71;99261.72;5070150;28;20170;-73
2022/02/04 17:24:13;;;;;;;0.00;0.00;;;;;;;6.82;90.00;99260.94;5070120;28;20573;-72
2022/02/04 17:26:40;;;;;;;0.10;0.10;;;;;;;6.78;90.56;99272.72;5069929;28;20167;-73
2022/02/04 17:29:07;;;;;;;0.10;0.10;;;;;;;6.76;91.21;99283.09;5070066;28;20396;-73
2022/02/04 17:31:33;;;;;;;0.53;0.27;;;;;;;6.71;91.79;99280.53;5069889;28;20242;-73
2022/02/04 17:33:58;;;;;;;0.10;0.10;;;;;;;6.67;93.07;99268.72;5070121;28;20554;-73
2022/02/04 17:36:24;;;;;;;0.10;0.10;;;;;;;6.61;93.43;99262.59;5069582;28;20198;-73
2022/02/04 17:38:51;;;;;;;0.10;0.10;;;;;;;6.55;94.74;99267.38;5069945;28;20177;-73
2022/02/04 17:41:18;;;;;;;0.67;0.67;;;;;;;6.49;95.58;99268.63;5071125;28;20182;-73
2022/02/04 17:43:48;;;;;;;0.00;0.00;;;;;;;6.44;96.00;99271.47;5073686;28;20178;-72
2022/02/04 17:46:13;;;;;;;0.37;0.30;;;;;;;6.42;96.74;99271.00;5071826;28;20576;-73
2022/02/04 17:48:46;;;;;;;1.70;0.83;;;;;;;6.36;97.47;99266.00;5073783;28;20171;-73
2022/02/04 17:53:58;;;;;;;2.57;1.13;;;;;;;6.30;98.75;99278.91;5073560;28;20274;-74
2022/02/04 17:56:37;;;;;;;4.77;0.20;;;;;;;6.24;99.76;99277.47;5073638;28;20241;-72
2022/02/04 17:59:30;;;;;;;3.40;0.20;;;;;;;6.19;100.00;99277.56;5073564;28;20201;-73
2022/02/04 18:07:17;;;;;;;1.50;0.67;;;;;;;6.02;100.00;99264.72;5073535;28;20185;-73
2022/02/04 18:09:45;;;;;;;1.40;0.40;;;;;;;6.00;100.00;99256.09;5073383;28;20198;-73
2022/02/04 18:12:12;;;;;;;0.77;0.50;;;;;;;6.00;100.00;99258.00;5073399;28;20171;-73
2022/02/04 18:14:38;;;;;;;0.67;0.10;;;;;;;6.00;100.00;99282.41;5071780;28;20187;-73
2022/02/04 18:17:05;;;;;;;0.30;0.20;;;;;;;6.00;100.00;99271.56;5070770;28;20232;-73
2022/02/04 18:19:31;;;;;;;0.30;0.30;;;;;;;6.01;100.00;99251.47;5071698;28;20354;-73
2022/02/04 18:21:57;;;;;;;0.20;0.20;;;;;;;6.01;100.00;99249.56;5071647;28;20468;-73